Address 0xec942db83dc32ff59a09579911e0e9ef67cde3aa 2

My Name Tag:
Not Available

Txn Hash Method
Block
From
To
Value [Txn Fee]
0x67509f3419a5b08e546737648d34e5e3803652f811683c3f1219d12b0cd991fdTransfer112389752021-08-06 8:55:3750 days 4 hrs ago0xec942db83dc32ff59a09579911e0e9ef67cde3aaOUT0x7dc8c5c774054344f5ba927c478db02dfd7fc0991 BNB0.00021
0xa2b58b97d0da566327fb3dde5bfe39efde753360da94dd39ed14f73d168f11950x6080604097920852021-06-16 19:59:55100 days 17 hrs ago0xec942db83dc32ff59a09579911e0e9ef67cde3aaOUT Contract Creation0 BNB0.08450246
0xedc05949656e8be9cb1f0ca35b316f30424501aa3645fe5cef4b7cb1e892053b0x6080604097919272021-06-16 19:52:01100 days 17 hrs ago0xec942db83dc32ff59a09579911e0e9ef67cde3aaOUT Contract Creation0 BNB0.04225123
0x7ae6f8fb916aed4c8e629eb83459af1de61f488bedf1ed4bff7af4f534027eb40x60c0604095030752021-06-06 19:08:06110 days 18 hrs ago0xec942db83dc32ff59a09579911e0e9ef67cde3aaOUT Contract Creation0 BNB0.00672703
0x8dfe8f3a75a445bc41701cbf880a26d8237d3afce0322ad3bd11dee83281a0340x60c0604094931072021-06-06 10:49:31111 days 2 hrs ago0xec942db83dc32ff59a09579911e0e9ef67cde3aaOUT Contract Creation0 BNB0.00672747
0x83f1ef39bb054c057b47c4282a217f844682229f414bf759f4207d7c567ff8d4Transfer94924562021-06-06 10:16:58111 days 2 hrs ago0xec942db83dc32ff59a09579911e0e9ef67cde3aaOUT 0xbc05a1b0400d422f67b1a273a0e00c74d9377f690 BNB0.00114581
0xc5dec3217eed8fdac08ce53c0210b204af5c33f6afc02f18183bf489d01977360x6080604094722932021-06-05 17:28:49111 days 19 hrs ago0xec942db83dc32ff59a09579911e0e9ef67cde3aaOUT Contract Creation0.0136 BNB0.02187139
0x14f3effdd4d27cc7e5c3fa67b19c0d41966e8c68f317c35c7d3892b426fb9503Withdraw79339562021-04-13 5:34:00165 days 7 hrs ago0xec942db83dc32ff59a09579911e0e9ef67cde3aaOUT 0xbb12fb182cad9856305b79a78c4b63c5c733df200 BNB0.00185309
0x7ea2888b2247a8e2f250f03b223775aaaf295632e63d3b2e3564f9a11373d2beWithdraw79338092021-04-13 5:26:39165 days 7 hrs ago0xec942db83dc32ff59a09579911e0e9ef67cde3aaOUT 0xbb12fb182cad9856305b79a78c4b63c5c733df200 BNB0.00123226
0x06ac3be2c11a47055df116a97d3c09ee8ede3727a9b0951d28350671cdd7562eDeposit78321392021-04-09 16:43:09168 days 20 hrs ago0xec942db83dc32ff59a09579911e0e9ef67cde3aaOUT 0xbb12fb182cad9856305b79a78c4b63c5c733df200 BNB0.0019723
0x3f935ba5eb0d6badc9e5ff9870d0bdd179cadee49cafaa7d0f93726d4e052f99Withdraw78237812021-04-09 9:45:15169 days 3 hrs ago0xec942db83dc32ff59a09579911e0e9ef67cde3aaOUT 0xbb12fb182cad9856305b79a78c4b63c5c733df200 BNB0.00048788
0x7b4e63e17d4fca29846b7a5a24d29b9e6c468c41b63586afc96554f85d1a6e26Withdraw78226402021-04-09 8:48:12169 days 4 hrs ago0xec942db83dc32ff59a09579911e0e9ef67cde3aaOUT 0xbb12fb182cad9856305b79a78c4b63c5c733df200 BNB0.0016605
0xd593578ce08f1dd53cdbb02973b8004cb1abf9772617bf43feb45c8d75a73097Deposit78220192021-04-09 8:17:09169 days 4 hrs ago0xec942db83dc32ff59a09579911e0e9ef67cde3aaOUT 0xbb12fb182cad9856305b79a78c4b63c5c733df200 BNB0.0017803
0x30d11a518275322d754bfd721891574717527fa48b5d923651f61daab68d2112Approve78220132021-04-09 8:16:51169 days 4 hrs ago0xec942db83dc32ff59a09579911e0e9ef67cde3aaOUT 0xbfe2a586f50d5b8e28e8cc017d62fa9c9f465f7e0 BNB0.00044503
0xe0ad3e89bed9ceb17c4993d0389d4a58f2898a717a0d4aa722e4314f91c7ed4bExecute Set78212872021-04-09 7:40:33169 days 5 hrs ago0xec942db83dc32ff59a09579911e0e9ef67cde3aaOUT 0xfaf017a5260fccba78a7b7ab845fedc7611633580 BNB0.00101671
0x58fb6c287933bc45166bd982953d7abd0ed2d85692fd96ec64a173c52f3745bcSchedule Set78125612021-04-09 0:24:15169 days 12 hrs ago0xec942db83dc32ff59a09579911e0e9ef67cde3aaOUT 0xfaf017a5260fccba78a7b7ab845fedc7611633580 BNB0.00052073
0x81521dc3478b5634f7e136aeca19a2eaf274d3a80d910249667099f3b01385f2Add78109022021-04-08 23:01:18169 days 14 hrs ago0xec942db83dc32ff59a09579911e0e9ef67cde3aaOUT 0xfaf017a5260fccba78a7b7ab845fedc7611633580 BNB0.00111431
0xf967b928c5cc202bb4560e79c1aca2425e18ca0bb0ff25239fc4415e8ea90f98Add78108472021-04-08 22:58:33169 days 14 hrs ago0xec942db83dc32ff59a09579911e0e9ef67cde3aaOUT 0xbb12fb182cad9856305b79a78c4b63c5c733df200 BNB0.00023499
0x672d14d94e75106dd7540183695fd18296c1421763feeef6b75e9c9b841edccd0x6080604078107252021-04-08 22:52:27169 days 14 hrs ago0xec942db83dc32ff59a09579911e0e9ef67cde3aaOUT Contract Creation0 BNB0.02947376
0x4219adba06173e0e9ddebf3949fd6679ebbfe37cf854afbfd8c8c029211332e4Add78105222021-04-08 22:42:18169 days 14 hrs ago0xec942db83dc32ff59a09579911e0e9ef67cde3aaOUT 0xbb12fb182cad9856305b79a78c4b63c5c733df200 BNB0.00023499
0x08d8c5393bf190739d0494a42db0150d55de88292acd4bbd04faf2e46f7616f3Add78103252021-04-08 22:32:27169 days 14 hrs ago0xec942db83dc32ff59a09579911e0e9ef67cde3aaOUT 0xbb12fb182cad9856305b79a78c4b63c5c733df200 BNB0.00023499
0x0febda88c6f19d2afb4d36274fe9b0c250186fef74bf284a49c74b8621b5bdc7Set78102552021-04-08 22:28:57169 days 14 hrs ago0xec942db83dc32ff59a09579911e0e9ef67cde3aaOUT 0xbb12fb182cad9856305b79a78c4b63c5c733df200 BNB0.00022896
0x6bfd01d434e52f2c5f11f1542d22fe6209a197ccbeb0dcd315002c41600dc101Add78098662021-04-08 22:09:30169 days 15 hrs ago0xec942db83dc32ff59a09579911e0e9ef67cde3aaOUT 0xfaf017a5260fccba78a7b7ab845fedc7611633580 BNB0.00116051
0x37b41aa671ba0e94ba13379331847b1c55e7ad82043646a7b4b7a0739fe65b3cSet Gov78093712021-04-08 21:44:45169 days 15 hrs ago0xec942db83dc32ff59a09579911e0e9ef67cde3aaOUT 0xba0b2b0d6b16036fcced4ae79e96c01728a23ada0 BNB0.00028514
0x7ddb3350f50e5bac98d6f1da0ec5e4a73bf2151875d2f14c047827a2371490efAdd77970522021-04-08 11:28:48170 days 1 hr ago0xec942db83dc32ff59a09579911e0e9ef67cde3aaOUT 0xbb12fb182cad9856305b79a78c4b63c5c733df200 BNB0.00023487
[ Download CSV Export 
Parent Txn Hash Block From To Value
Loading

Contract Name:
0 BNB

Compiler Version
0

Optimization Enabled:
0 BNB

Other Settings:
-NA-
Block Transaction Gas Used Reward
Age Block Fee Address BC Fee Address Voting Power Jailed Incoming
Block Uncle Number Difficulty Gas Used Reward
Loading